createdAt,value
2023-04-19T00:04:21.791Z,7.60
2023-04-19T00:09:24.847Z,7.64
2023-04-19T00:14:27.731Z,7.55
2023-04-19T00:19:31.772Z,7.47
2023-04-19T00:24:34.527Z,7.42
2023-04-19T00:29:39.153Z,7.35
2023-04-19T00:34:43.204Z,7.27
2023-04-19T00:39:45.901Z,7.16
2023-04-19T00:44:48.636Z,7.04
2023-04-19T00:49:55.026Z,6.93
2023-04-19T00:54:59.570Z,6.86
2023-04-19T01:00:02.839Z,6.77
2023-04-19T01:05:07.967Z,6.71
2023-04-19T01:10:11.785Z,6.73
2023-04-19T01:15:14.407Z,6.73
2023-04-19T01:20:18.436Z,6.76
2023-04-19T01:25:22.623Z,6.92
2023-04-19T01:30:25.527Z,7.17
2023-04-19T01:35:28.104Z,7.37
2023-04-19T01:40:32.209Z,7.75
2023-04-19T01:45:36.290Z,7.88
2023-04-19T01:50:38.995Z,7.96
2023-04-19T01:55:43.547Z,8.05
2023-04-19T02:00:46.355Z,8.14
2023-04-19T02:05:49.337Z,8.13
2023-04-19T02:10:53.357Z,8.00
2023-04-19T02:15:56.035Z,7.87
2023-04-19T02:20:59.672Z,7.80
2023-04-19T02:26:03.968Z,7.74
2023-04-19T02:31:07.599Z,7.60
2023-04-19T02:36:10.651Z,7.51
2023-04-19T02:41:14.626Z,7.33
2023-04-19T02:46:17.440Z,7.24
2023-04-19T02:51:21.369Z,7.21
2023-04-19T02:56:25.424Z,7.15
2023-04-19T03:01:28.177Z,7.15
2023-04-19T03:06:32.064Z,7.16
2023-04-19T03:11:36.991Z,7.11
2023-04-19T03:16:39.627Z,7.04
2023-04-19T03:21:42.258Z,6.98
2023-04-19T03:26:46.256Z,6.87
2023-04-19T03:31:50.165Z,6.86
2023-04-19T03:36:52.880Z,6.93
2023-04-19T03:41:57.886Z,7.05
2023-04-19T03:47:01.511Z,7.21
2023-04-19T03:52:04.346Z,7.30
2023-04-19T03:57:08.426Z,7.42
2023-04-19T04:02:12.102Z,7.47
2023-04-19T04:07:15.939Z,7.52
2023-04-19T04:12:19.964Z,7.59
2023-04-19T04:17:24.395Z,7.62
2023-04-19T04:22:27.179Z,7.65
2023-04-19T04:27:31.906Z,7.66
2023-04-19T04:32:36.239Z,7.62
2023-04-19T04:37:40.269Z,7.68
2023-04-19T04:42:45.643Z,7.66
2023-04-19T04:47:48.443Z,7.64
2023-04-19T04:52:51.885Z,7.60
2023-04-19T04:57:57.144Z,7.64
2023-04-19T05:03:02.153Z,7.65
2023-04-19T05:08:06.203Z,7.65
2023-04-19T05:13:10.163Z,7.62
2023-04-19T05:18:12.850Z,7.38
2023-04-19T05:23:15.589Z,7.16
2023-04-19T05:28:19.590Z,6.86
2023-04-19T05:33:22.290Z,6.68
2023-04-19T05:38:24.993Z,6.56
2023-04-19T05:43:28.977Z,6.52
2023-04-19T05:48:31.526Z,6.49
2023-04-19T05:53:34.163Z,6.41
2023-04-19T05:58:38.101Z,6.41
2023-04-19T06:03:40.936Z,6.55
2023-04-19T06:08:44.451Z,6.64
2023-04-19T06:13:48.377Z,6.69
2023-04-19T06:18:51.405Z,6.75
2023-04-19T06:23:54.249Z,7.11
2023-04-19T06:28:58.205Z,7.79
2023-04-19T06:34:00.780Z,9.00
2023-04-19T06:39:03.942Z,11.60
2023-04-19T06:44:08.075Z,12.57
2023-04-19T06:49:10.848Z,12.49
2023-04-19T06:54:13.469Z,13.74
2023-04-19T06:59:19.114Z,14.27
2023-04-19T07:04:22.068Z,14.48
2023-04-19T07:09:25.107Z,14.69
2023-04-19T07:14:29.080Z,15.20
2023-04-19T07:19:33.118Z,15.51
2023-04-19T07:24:35.778Z,15.01
2023-04-19T07:29:41.224Z,15.23
2023-04-19T07:34:45.018Z,15.73
2023-04-19T07:39:47.579Z,15.94
2023-04-19T07:44:51.783Z,16.21
2023-04-19T07:49:58.824Z,16.12
2023-04-19T07:55:01.804Z,15.81
2023-04-19T08:00:06.210Z,15.77
2023-04-19T08:05:09.805Z,16.28
2023-04-19T08:10:13.156Z,15.89
2023-04-19T08:20:23.163Z,15.67
2023-04-19T08:25:28.528Z,16.09
2023-04-19T08:30:34.005Z,17.15
2023-04-19T08:35:37.049Z,18.18
2023-04-19T08:40:46.588Z,17.40
2023-04-19T08:45:51.514Z,17.60
2023-04-19T08:51:05.087Z,17.89
2023-04-19T08:56:20.677Z,17.66
2023-04-19T09:01:35.892Z,17.51
2023-04-19T09:06:40.194Z,17.95
2023-04-19T09:11:43.195Z,17.70
2023-04-19T09:16:47.260Z,17.34
2023-04-19T09:21:51.955Z,17.55
2023-04-19T09:26:58.278Z,18.19
2023-04-19T09:32:02.292Z,18.32
2023-04-19T09:37:27.609Z,18.70
2023-04-19T09:48:04.279Z,17.82
2023-04-19T09:53:08.261Z,18.02
2023-04-19T09:58:10.885Z,17.68
2023-04-19T10:03:16.588Z,17.70
2023-04-19T10:08:20.826Z,18.58
2023-04-19T10:13:26.779Z,18.54
2023-04-19T10:18:32.103Z,18.93
2023-04-19T10:23:35.781Z,20.00
2023-04-19T10:28:38.494Z,18.90
2023-04-19T10:33:42.912Z,19.17
2023-04-19T10:38:48.242Z,18.75
2023-04-19T10:44:11.222Z,17.95
2023-04-19T10:49:15.536Z,17.51
2023-04-19T10:54:36.494Z,17.98
2023-04-19T10:59:42.892Z,18.54
2023-04-19T11:05:03.850Z,18.32
2023-04-19T11:10:07.305Z,19.03
2023-04-19T11:15:11.837Z,18.87
2023-04-19T11:20:15.859Z,18.41
2023-04-19T11:25:20.662Z,18.43
2023-04-19T11:30:29.396Z,18.79
2023-04-19T11:35:33.323Z,18.39
2023-04-19T11:40:37.512Z,17.74
2023-04-19T11:45:40.592Z,17.77
2023-04-19T11:50:46.827Z,18.31
2023-04-19T11:55:52.214Z,18.69
2023-04-19T12:00:55.687Z,18.18
2023-04-19T12:06:03.362Z,18.17
2023-04-19T12:11:07.491Z,17.70
2023-04-19T12:16:10.198Z,18.45
2023-04-19T12:21:25.718Z,18.61
2023-04-19T12:26:30.090Z,18.49
2023-04-19T12:31:33.559Z,17.79
2023-04-19T12:36:37.563Z,17.96
2023-04-19T12:41:41.232Z,18.29
2023-04-19T12:46:44.944Z,18.02
2023-04-19T12:51:49.932Z,17.64
2023-04-19T12:56:52.526Z,17.49
2023-04-19T13:01:55.343Z,17.87
2023-04-19T13:07:00.533Z,18.34
2023-04-19T13:12:03.121Z,18.50
2023-04-19T13:17:05.797Z,18.86
2023-04-19T13:22:09.745Z,18.01
2023-04-19T13:27:12.439Z,18.13
2023-04-19T13:32:15.180Z,17.68
2023-04-19T13:37:19.122Z,17.54
2023-04-19T13:42:23.378Z,17.53
2023-04-19T13:47:27.035Z,17.68
2023-04-19T13:52:31.035Z,17.96
2023-04-19T13:57:33.672Z,17.62
2023-04-19T14:02:36.537Z,17.44
2023-04-19T14:07:41.526Z,18.44
2023-04-19T14:12:45.078Z,18.58
2023-04-19T14:17:48.091Z,17.99
2023-04-19T14:22:52.399Z,17.54
2023-04-19T14:27:55.057Z,17.29
2023-04-19T14:32:57.859Z,17.12
2023-04-19T14:38:02.025Z,17.50
2023-04-19T14:43:04.740Z,17.37
2023-04-19T14:48:07.605Z,17.32
2023-04-19T14:53:11.545Z,17.58
2023-04-19T14:58:14.150Z,17.65
2023-04-19T15:03:17.614Z,17.73
2023-04-19T15:08:30.033Z,17.76
2023-04-19T15:13:33.982Z,17.77
2023-04-19T15:18:37.027Z,17.50
2023-04-19T15:23:42.562Z,17.85
2023-04-19T15:28:45.389Z,17.46
2023-04-19T15:33:48.040Z,17.81
2023-04-19T15:38:51.915Z,17.86
2023-04-19T15:43:54.542Z,18.16
2023-04-19T15:48:57.141Z,17.77
2023-04-19T15:54:01.125Z,17.53
2023-04-19T15:59:03.777Z,16.93
2023-04-19T16:04:06.564Z,15.79
2023-04-19T16:09:10.658Z,14.71
2023-04-19T16:14:13.300Z,15.88
2023-04-19T16:19:16.473Z,16.78
2023-04-19T16:24:20.652Z,17.53
2023-04-19T16:29:23.264Z,17.23
2023-04-19T16:34:27.017Z,15.86
2023-04-19T16:39:30.981Z,15.08
2023-04-19T16:44:33.770Z,15.70
2023-04-19T16:49:36.466Z,16.26
2023-04-19T16:54:40.413Z,15.53
2023-04-19T16:59:42.999Z,15.62
2023-04-19T17:04:45.815Z,15.29
2023-04-19T17:09:49.759Z,15.51
2023-04-19T17:14:52.339Z,15.41
2023-04-19T17:19:56.923Z,14.18
2023-04-19T17:25:00.931Z,12.90
2023-04-19T17:30:04.270Z,12.33
2023-04-19T17:35:07.027Z,12.07
2023-04-19T17:40:12.245Z,11.75
2023-04-19T17:45:14.861Z,11.30
2023-04-19T17:50:17.540Z,11.11
2023-04-19T17:55:21.570Z,11.00
2023-04-19T18:00:24.394Z,10.88
2023-04-19T18:05:27.221Z,10.75
2023-04-19T18:10:31.618Z,10.58
2023-04-19T18:15:34.243Z,10.41
2023-04-19T18:20:36.865Z,10.15
2023-04-19T18:25:40.861Z,9.94
2023-04-19T18:30:43.733Z,9.81
2023-04-19T18:35:46.327Z,9.60
2023-04-19T18:40:50.673Z,9.37
2023-04-19T18:45:56.955Z,9.25
2023-04-19T18:50:59.803Z,9.24
2023-04-19T18:56:03.780Z,8.96
2023-04-19T19:01:06.408Z,8.77
2023-04-19T19:06:09.456Z,8.70
2023-04-19T19:11:37.341Z,8.55
2023-04-19T19:21:40.277Z,8.43
2023-04-19T19:26:44.420Z,8.32
2023-04-19T19:31:47.102Z,8.20
2023-04-19T19:36:50.188Z,8.06
2023-04-19T19:42:04.627Z,8.06
2023-04-19T19:47:10.508Z,7.99
2023-04-19T19:52:14.602Z,7.91
2023-04-19T19:58:15.610Z,7.83
2023-04-19T20:02:54.319Z,7.80
2023-04-19T20:08:10.479Z,7.67
2023-04-19T20:13:14.731Z,7.59
2023-04-19T20:18:18.195Z,7.41
2023-04-19T20:23:21.495Z,7.25
2023-04-19T20:28:26.092Z,7.13
2023-04-19T20:33:29.229Z,7.13
2023-04-19T20:38:34.745Z,6.98
2023-04-19T20:43:39.240Z,6.93
2023-04-19T20:48:44.002Z,6.89
2023-04-19T20:53:46.611Z,6.92
2023-04-19T20:58:50.677Z,6.82
2023-04-19T21:03:53.423Z,6.68
2023-04-19T21:08:57.690Z,6.62
2023-04-19T21:14:01.711Z,6.48
2023-04-19T21:19:04.384Z,6.41
2023-04-19T21:24:08.181Z,6.39
2023-04-19T21:29:13.154Z,6.30
2023-04-19T21:34:15.776Z,6.25
2023-04-19T21:39:18.694Z,6.29
2023-04-19T21:44:23.980Z,6.20
2023-04-19T21:49:26.715Z,6.13
2023-04-19T21:54:34.084Z,6.14
2023-04-19T21:59:38.957Z,6.03
2023-04-19T22:04:41.656Z,6.11
2023-04-19T22:09:44.433Z,6.00
2023-04-19T22:14:48.423Z,5.83
2023-04-19T22:19:51.559Z,5.74
2023-04-19T22:24:57.974Z,5.68
2023-04-19T22:30:02.325Z,5.48
2023-04-19T22:35:05.826Z,5.34
2023-04-19T22:40:09.952Z,5.13
2023-04-19T22:45:14.102Z,4.96
2023-04-19T22:50:16.816Z,4.90
2023-04-19T22:55:19.448Z,4.83
2023-04-19T23:00:24.099Z,4.75
2023-04-19T23:05:27.143Z,4.70
2023-04-19T23:10:29.803Z,4.52
2023-04-19T23:15:34.464Z,4.40
2023-04-19T23:20:37.131Z,4.31
2023-04-19T23:25:39.886Z,4.27
2023-04-19T23:30:43.834Z,4.12
2023-04-19T23:35:46.553Z,4.06
2023-04-19T23:40:49.211Z,4.00
2023-04-19T23:45:54.200Z,3.96
2023-04-19T23:50:56.817Z,3.86
2023-04-19T23:55:59.549Z,3.73
